TJIG/SIG METAR and TAF weather

Enter ICAO airport designator
Station Type Date Time Source
TJIG METAR 2020/01/29 12:55 UTC NOAA

TJIG 291255Z 00000KT 10SM FEW025 SCT070 25/22 A2999


Station Type Date Time Source
TJIG Decoded METAR 2020/01/29 12:55 UTC NOAA

Station name not available
Jan 29, 2020 - 07:55 AM EST / 2020.01.29 1255 UTC
Wind: Calm:0
Visibility: 10 mile(s):0
Sky conditions: partly cloudy
Temperature: 77 F (25 C)
Dew Point: 71 F (22 C)
Relative Humidity: 83%
Pressure (altimeter): 29.99 in. Hg (1015 hPa)
ob: TJIG 291255Z 00000KT 10SM FEW025 SCT070 25/22 A2999
cycle: 13

Station Type Date Time Source
TJIG TAF UTC NOAA

Error!

Example: see airport list